sensor_id;sensor_type;location;lat;lon;timestamp;P1;durP1;ratioP1;P2;durP2;ratioP2
12832;SDS011;6483;51.310;4.462;2022-08-16T00:00:17;14.35;;;13.00;;
12832;SDS011;6483;51.310;4.462;2022-08-16T00:02:44;14.30;;;12.80;;
12832;SDS011;6483;51.310;4.462;2022-08-16T00:05:13;14.13;;;12.82;;
12832;SDS011;6483;51.310;4.462;2022-08-16T00:07:40;14.07;;;12.73;;
12832;SDS011;6483;51.310;4.462;2022-08-16T00:10:07;13.80;;;12.20;;
12832;SDS011;6483;51.310;4.462;2022-08-16T00:12:33;13.60;;;12.25;;
12832;SDS011;6483;51.310;4.462;2022-08-16T00:15:00;13.82;;;12.52;;
12832;SDS011;6483;51.310;4.462;2022-08-16T00:18:10;14.13;;;12.82;;
12832;SDS011;6483;51.310;4.462;2022-08-16T00:20:20;14.13;;;12.73;;
12832;SDS011;6483;51.310;4.462;2022-08-16T00:22:47;13.30;;;11.93;;
12832;SDS011;6483;51.310;4.462;2022-08-16T00:25:15;18.10;;;14.00;;
12832;SDS011;6483;51.310;4.462;2022-08-16T00:27:41;13.88;;;12.57;;
12832;SDS011;6483;51.310;4.462;2022-08-16T00:30:12;13.68;;;12.38;;
12832;SDS011;6483;51.310;4.462;2022-08-16T00:32:44;13.90;;;11.77;;
12832;SDS011;6483;51.310;4.462;2022-08-16T00:35:16;15.65;;;13.07;;
12832;SDS011;6483;51.310;4.462;2022-08-16T00:37:46;14.00;;;12.70;;
12832;SDS011;6483;51.310;4.462;2022-08-16T00:40:14;13.65;;;12.32;;
12832;SDS011;6483;51.310;4.462;2022-08-16T00:42:40;14.25;;;12.85;;
12832;SDS011;6483;51.310;4.462;2022-08-16T00:45:09;16.15;;;13.60;;
12832;SDS011;6483;51.310;4.462;2022-08-16T00:47:38;15.73;;;14.18;;
12832;SDS011;6483;51.310;4.462;2022-08-16T00:50:06;14.63;;;13.23;;
12832;SDS011;6483;51.310;4.462;2022-08-16T00:52:32;14.23;;;12.82;;
12832;SDS011;6483;51.310;4.462;2022-08-16T00:54:58;15.23;;;13.73;;
12832;SDS011;6483;51.310;4.462;2022-08-16T00:57:27;15.43;;;13.95;;
12832;SDS011;6483;51.310;4.462;2022-08-16T00:59:53;15.68;;;14.13;;
12832;SDS011;6483;51.310;4.462;2022-08-16T01:02:19;14.23;;;12.82;;
12832;SDS011;6483;51.310;4.462;2022-08-16T01:04:45;14.10;;;12.60;;
12832;SDS011;6483;51.310;4.462;2022-08-16T01:07:12;13.93;;;12.70;;
12832;SDS011;6483;51.310;4.462;2022-08-16T01:09:39;14.68;;;13.15;;
12832;SDS011;6483;51.310;4.462;2022-08-16T01:12:08;15.32;;;13.85;;
12832;SDS011;6483;51.310;4.462;2022-08-16T01:14:38;15.68;;;14.07;;
12832;SDS011;6483;51.310;4.462;2022-08-16T01:17:09;17.25;;;13.55;;
12832;SDS011;6483;51.310;4.462;2022-08-16T01:19:41;14.95;;;13.30;;
12832;SDS011;6483;51.310;4.462;2022-08-16T01:25:23;16.40;;;14.70;;
12832;SDS011;6483;51.310;4.462;2022-08-16T01:27:48;18.25;;;14.88;;
12832;SDS011;6483;51.310;4.462;2022-08-16T01:30:23;17.23;;;15.52;;
12832;SDS011;6483;51.310;4.462;2022-08-16T01:32:50;15.55;;;13.60;;
12832;SDS011;6483;51.310;4.462;2022-08-16T01:37:45;15.68;;;14.07;;
12832;SDS011;6483;51.310;4.462;2022-08-16T01:40:12;15.18;;;13.68;;
12832;SDS011;6483;51.310;4.462;2022-08-16T01:42:39;14.45;;;13.00;;
12832;SDS011;6483;51.310;4.462;2022-08-16T01:45:05;16.33;;;14.50;;
12832;SDS011;6483;51.310;4.462;2022-08-16T01:47:31;15.73;;;13.23;;
12832;SDS011;6483;51.310;4.462;2022-08-16T01:49:58;14.70;;;13.27;;
12832;SDS011;6483;51.310;4.462;2022-08-16T01:52:28;15.10;;;13.70;;
12832;SDS011;6483;51.310;4.462;2022-08-16T01:54:54;17.05;;;14.75;;
12832;SDS011;6483;51.310;4.462;2022-08-16T01:57:20;15.60;;;14.00;;
12832;SDS011;6483;51.310;4.462;2022-08-16T01:59:46;15.75;;;14.07;;
12832;SDS011;6483;51.310;4.462;2022-08-16T02:02:12;15.23;;;13.55;;
12832;SDS011;6483;51.310;4.462;2022-08-16T02:04:38;15.82;;;13.57;;
12832;SDS011;6483;51.310;4.462;2022-08-16T02:07:04;15.52;;;14.02;;
12832;SDS011;6483;51.310;4.462;2022-08-16T02:09:33;15.05;;;13.45;;
12832;SDS011;6483;51.310;4.462;2022-08-16T02:12:05;15.85;;;14.18;;
12832;SDS011;6483;51.310;4.462;2022-08-16T02:14:33;15.75;;;14.27;;
12832;SDS011;6483;51.310;4.462;2022-08-16T02:17:02;16.02;;;14.38;;
12832;SDS011;6483;51.310;4.462;2022-08-16T02:19:30;16.33;;;14.68;;
12832;SDS011;6483;51.310;4.462;2022-08-16T02:21:56;15.95;;;14.30;;
12832;SDS011;6483;51.310;4.462;2022-08-16T02:24:23;18.25;;;15.48;;
12832;SDS011;6483;51.310;4.462;2022-08-16T02:26:53;15.75;;;14.15;;
12832;SDS011;6483;51.310;4.462;2022-08-16T02:29:20;16.20;;;14.52;;
12832;SDS011;6483;51.310;4.462;2022-08-16T02:31:49;18.60;;;15.40;;
12832;SDS011;6483;51.310;4.462;2022-08-16T02:34:17;17.05;;;15.25;;
12832;SDS011;6483;51.310;4.462;2022-08-16T02:36:52;18.88;;;16.23;;
12832;SDS011;6483;51.310;4.462;2022-08-16T02:39:18;20.05;;;15.95;;
12832;SDS011;6483;51.310;4.462;2022-08-16T02:41:45;17.77;;;15.25;;
12832;SDS011;6483;51.310;4.462;2022-08-16T02:44:12;19.15;;;15.35;;
12832;SDS011;6483;51.310;4.462;2022-08-16T02:46:41;17.05;;;15.18;;
12832;SDS011;6483;51.310;4.462;2022-08-16T02:49:08;15.65;;;13.75;;
12832;SDS011;6483;51.310;4.462;2022-08-16T02:51:35;16.05;;;14.18;;
12832;SDS011;6483;51.310;4.462;2022-08-16T02:54:02;18.73;;;16.10;;
12832;SDS011;6483;51.310;4.462;2022-08-16T02:56:28;16.73;;;15.02;;
12832;SDS011;6483;51.310;4.462;2022-08-16T02:58:55;18.30;;;15.70;;
12832;SDS011;6483;51.310;4.462;2022-08-16T03:01:25;18.40;;;15.43;;
12832;SDS011;6483;51.310;4.462;2022-08-16T03:03:59;17.55;;;15.73;;
12832;SDS011;6483;51.310;4.462;2022-08-16T03:06:26;20.40;;;14.80;;
12832;SDS011;6483;51.310;4.462;2022-08-16T03:08:59;17.58;;;15.70;;
12832;SDS011;6483;51.310;4.462;2022-08-16T03:11:28;19.00;;;16.95;;
12832;SDS011;6483;51.310;4.462;2022-08-16T03:13:55;18.90;;;15.98;;
12832;SDS011;6483;51.310;4.462;2022-08-16T03:16:22;20.85;;;17.42;;
12832;SDS011;6483;51.310;4.462;2022-08-16T03:18:48;22.88;;;19.23;;
12832;SDS011;6483;51.310;4.462;2022-08-16T03:21:14;25.30;;;20.90;;
12832;SDS011;6483;51.310;4.462;2022-08-16T03:23:46;21.23;;;18.67;;
12832;SDS011;6483;51.310;4.462;2022-08-16T03:26:16;23.30;;;19.23;;
12832;SDS011;6483;51.310;4.462;2022-08-16T03:28:45;23.83;;;21.05;;
12832;SDS011;6483;51.310;4.462;2022-08-16T03:31:11;23.58;;;21.08;;
12832;SDS011;6483;51.310;4.462;2022-08-16T03:33:38;22.63;;;20.20;;
12832;SDS011;6483;51.310;4.462;2022-08-16T03:36:04;23.27;;;20.80;;
12832;SDS011;6483;51.310;4.462;2022-08-16T03:38:31;26.67;;;20.60;;
12832;SDS011;6483;51.310;4.462;2022-08-16T03:40:58;21.65;;;19.33;;
12832;SDS011;6483;51.310;4.462;2022-08-16T03:43:28;27.45;;;22.30;;
12832;SDS011;6483;51.310;4.462;2022-08-16T03:45:54;28.48;;;23.08;;
12832;SDS011;6483;51.310;4.462;2022-08-16T03:48:34;27.65;;;23.42;;
12832;SDS011;6483;51.310;4.462;2022-08-16T03:51:04;25.33;;;22.60;;
12832;SDS011;6483;51.310;4.462;2022-08-16T03:53:32;27.08;;;23.55;;
12832;SDS011;6483;51.310;4.462;2022-08-16T03:56:02;26.25;;;22.85;;
12832;SDS011;6483;51.310;4.462;2022-08-16T03:58:28;30.33;;;25.13;;
12832;SDS011;6483;51.310;4.462;2022-08-16T04:00:54;27.95;;;25.02;;
12832;SDS011;6483;51.310;4.462;2022-08-16T04:03:20;29.38;;;22.83;;
12832;SDS011;6483;51.310;4.462;2022-08-16T04:05:49;27.80;;;23.08;;
12832;SDS011;6483;51.310;4.462;2022-08-16T04:08:16;26.92;;;24.02;;
12832;SDS011;6483;51.310;4.462;2022-08-16T04:10:49;26.02;;;23.17;;
12832;SDS011;6483;51.310;4.462;2022-08-16T04:13:16;24.23;;;20.73;;
12832;SDS011;6483;51.310;4.462;2022-08-16T04:15:42;23.17;;;20.52;;
12832;SDS011;6483;51.310;4.462;2022-08-16T04:18:08;24.25;;;19.20;;
12832;SDS011;6483;51.310;4.462;2022-08-16T04:20:37;24.73;;;19.63;;
12832;SDS011;6483;51.310;4.462;2022-08-16T04:23:04;20.42;;;18.25;;
12832;SDS011;6483;51.310;4.462;2022-08-16T04:25:32;21.35;;;18.92;;
12832;SDS011;6483;51.310;4.462;2022-08-16T04:28:02;22.17;;;19.50;;
12832;SDS011;6483;51.310;4.462;2022-08-16T04:30:28;20.70;;;18.25;;
12832;SDS011;6483;51.310;4.462;2022-08-16T04:32:54;20.10;;;17.75;;
12832;SDS011;6483;51.310;4.462;2022-08-16T04:35:24;21.40;;;18.02;;
12832;SDS011;6483;51.310;4.462;2022-08-16T04:37:50;21.17;;;18.88;;
12832;SDS011;6483;51.310;4.462;2022-08-16T04:40:17;21.10;;;18.85;;
12832;SDS011;6483;51.310;4.462;2022-08-16T04:42:43;22.08;;;18.90;;
12832;SDS011;6483;51.310;4.462;2022-08-16T04:45:10;19.95;;;17.73;;
12832;SDS011;6483;51.310;4.462;2022-08-16T04:47:49;21.58;;;18.88;;
12832;SDS011;6483;51.310;4.462;2022-08-16T04:50:20;20.67;;;18.48;;
12832;SDS011;6483;51.310;4.462;2022-08-16T04:52:47;20.80;;;17.92;;
12832;SDS011;6483;51.310;4.462;2022-08-16T04:55:15;23.80;;;18.98;;
12832;SDS011;6483;51.310;4.462;2022-08-16T04:57:42;20.67;;;18.48;;
12832;SDS011;6483;51.310;4.462;2022-08-16T05:00:14;21.52;;;19.30;;
12832;SDS011;6483;51.310;4.462;2022-08-16T05:02:42;21.83;;;18.65;;
12832;SDS011;6483;51.310;4.462;2022-08-16T05:05:08;20.05;;;17.63;;
12832;SDS011;6483;51.310;4.462;2022-08-16T05:07:36;22.00;;;19.75;;
12832;SDS011;6483;51.310;4.462;2022-08-16T05:10:07;20.70;;;18.52;;
12832;SDS011;6483;51.310;4.462;2022-08-16T05:12:34;23.73;;;19.52;;
12832;SDS011;6483;51.310;4.462;2022-08-16T05:15:00;23.70;;;21.23;;
12832;SDS011;6483;51.310;4.462;2022-08-16T05:17:30;35.20;;;23.98;;
12832;SDS011;6483;51.310;4.462;2022-08-16T05:19:56;27.40;;;23.73;;
12832;SDS011;6483;51.310;4.462;2022-08-16T05:22:22;24.40;;;21.52;;
12832;SDS011;6483;51.310;4.462;2022-08-16T05:24:51;29.02;;;22.00;;
12832;SDS011;6483;51.310;4.462;2022-08-16T05:27:18;31.20;;;25.13;;
12832;SDS011;6483;51.310;4.462;2022-08-16T05:29:44;30.85;;;24.92;;
12832;SDS011;6483;51.310;4.462;2022-08-16T05:32:10;30.23;;;26.80;;
12832;SDS011;6483;51.310;4.462;2022-08-16T05:34:39;34.17;;;25.65;;
12832;SDS011;6483;51.310;4.462;2022-08-16T05:37:05;30.58;;;25.73;;
12832;SDS011;6483;51.310;4.462;2022-08-16T05:39:31;33.55;;;27.27;;
12832;SDS011;6483;51.310;4.462;2022-08-16T05:41:57;30.60;;;25.48;;
12832;SDS011;6483;51.310;4.462;2022-08-16T05:44:23;32.45;;;27.08;;
12832;SDS011;6483;51.310;4.462;2022-08-16T05:46:50;32.33;;;26.85;;
12832;SDS011;6483;51.310;4.462;2022-08-16T05:49:19;37.45;;;30.52;;
12832;SDS011;6483;51.310;4.462;2022-08-16T05:51:47;32.75;;;28.52;;
12832;SDS011;6483;51.310;4.462;2022-08-16T05:54:16;30.75;;;26.77;;
12832;SDS011;6483;51.310;4.462;2022-08-16T05:56:46;28.63;;;24.23;;
12832;SDS011;6483;51.310;4.462;2022-08-16T05:59:13;28.42;;;23.77;;
12832;SDS011;6483;51.310;4.462;2022-08-16T06:01:39;27.08;;;21.95;;
12832;SDS011;6483;51.310;4.462;2022-08-16T06:04:07;27.02;;;20.08;;
12832;SDS011;6483;51.310;4.462;2022-08-16T06:06:33;19.40;;;17.00;;
12832;SDS011;6483;51.310;4.462;2022-08-16T06:09:00;20.85;;;16.50;;
12832;SDS011;6483;51.310;4.462;2022-08-16T06:11:32;19.00;;;16.00;;
12832;SDS011;6483;51.310;4.462;2022-08-16T06:13:58;19.00;;;15.82;;
12832;SDS011;6483;51.310;4.462;2022-08-16T06:16:24;18.90;;;16.17;;
12832;SDS011;6483;51.310;4.462;2022-08-16T06:18:53;19.25;;;15.57;;
12832;SDS011;6483;51.310;4.462;2022-08-16T06:21:19;17.77;;;14.90;;
12832;SDS011;6483;51.310;4.462;2022-08-16T06:23:48;23.15;;;14.80;;
12832;SDS011;6483;51.310;4.462;2022-08-16T06:26:14;16.33;;;14.07;;
12832;SDS011;6483;51.310;4.462;2022-08-16T06:28:43;18.83;;;14.32;;
12832;SDS011;6483;51.310;4.462;2022-08-16T06:31:12;16.52;;;14.80;;
12832;SDS011;6483;51.310;4.462;2022-08-16T06:33:39;20.48;;;14.77;;
12832;SDS011;6483;51.310;4.462;2022-08-16T06:36:05;20.02;;;14.35;;
12832;SDS011;6483;51.310;4.462;2022-08-16T06:38:33;16.63;;;13.73;;
12832;SDS011;6483;51.310;4.462;2022-08-16T06:40:59;18.92;;;13.05;;
12832;SDS011;6483;51.310;4.462;2022-08-16T06:43:29;18.33;;;13.73;;
12832;SDS011;6483;51.310;4.462;2022-08-16T06:45:55;18.63;;;13.95;;
12832;SDS011;6483;51.310;4.462;2022-08-16T06:48:21;15.68;;;13.35;;
12832;SDS011;6483;51.310;4.462;2022-08-16T06:50:47;15.75;;;13.70;;
12832;SDS011;6483;51.310;4.462;2022-08-16T06:53:14;17.05;;;13.25;;
12832;SDS011;6483;51.310;4.462;2022-08-16T06:55:41;19.38;;;13.70;;
12832;SDS011;6483;51.310;4.462;2022-08-16T06:58:08;15.05;;;13.25;;
12832;SDS011;6483;51.310;4.462;2022-08-16T07:00:34;22.90;;;14.15;;
12832;SDS011;6483;51.310;4.462;2022-08-16T07:03:01;18.50;;;13.45;;
12832;SDS011;6483;51.310;4.462;2022-08-16T07:05:27;23.33;;;14.55;;
12832;SDS011;6483;51.310;4.462;2022-08-16T07:07:56;14.63;;;13.13;;
12832;SDS011;6483;51.310;4.462;2022-08-16T07:10:22;19.50;;;14.85;;
12832;SDS011;6483;51.310;4.462;2022-08-16T07:12:48;17.23;;;14.18;;
12832;SDS011;6483;51.310;4.462;2022-08-16T07:15:18;17.15;;;12.93;;
12832;SDS011;6483;51.310;4.462;2022-08-16T07:17:45;16.35;;;14.63;;
12832;SDS011;6483;51.310;4.462;2022-08-16T07:20:16;20.65;;;15.55;;
12832;SDS011;6483;51.310;4.462;2022-08-16T07:22:46;19.20;;;13.95;;
12832;SDS011;6483;51.310;4.462;2022-08-16T07:25:13;17.42;;;14.95;;
12832;SDS011;6483;51.310;4.462;2022-08-16T07:27:44;19.08;;;14.88;;
12832;SDS011;6483;51.310;4.462;2022-08-16T07:30:12;21.30;;;15.85;;
12832;SDS011;6483;51.310;4.462;2022-08-16T07:32:38;20.25;;;14.93;;
12832;SDS011;6483;51.310;4.462;2022-08-16T07:35:12;16.77;;;14.98;;
12832;SDS011;6483;51.310;4.462;2022-08-16T07:37:41;20.40;;;15.27;;
12832;SDS011;6483;51.310;4.462;2022-08-16T07:40:07;17.23;;;15.38;;
12832;SDS011;6483;51.310;4.462;2022-08-16T07:42:33;16.95;;;14.20;;
12832;SDS011;6483;51.310;4.462;2022-08-16T07:44:59;16.77;;;14.32;;
12832;SDS011;6483;51.310;4.462;2022-08-16T07:47:26;20.08;;;15.95;;
12832;SDS011;6483;51.310;4.462;2022-08-16T07:49:55;17.20;;;14.95;;
12832;SDS011;6483;51.310;4.462;2022-08-16T07:52:22;19.17;;;14.60;;
12832;SDS011;6483;51.310;4.462;2022-08-16T07:54:48;15.63;;;14.02;;
12832;SDS011;6483;51.310;4.462;2022-08-16T07:57:17;17.20;;;14.13;;
12832;SDS011;6483;51.310;4.462;2022-08-16T07:59:43;16.27;;;12.73;;
12832;SDS011;6483;51.310;4.462;2022-08-16T08:02:12;14.48;;;12.05;;
12832;SDS011;6483;51.310;4.462;2022-08-16T08:04:38;15.52;;;11.30;;
12832;SDS011;6483;51.310;4.462;2022-08-16T08:07:05;13.38;;;11.25;;
12832;SDS011;6483;51.310;4.462;2022-08-16T08:09:34;12.63;;;10.82;;
12832;SDS011;6483;51.310;4.462;2022-08-16T08:12:06;11.95;;;10.75;;
12832;SDS011;6483;51.310;4.462;2022-08-16T08:14:32;16.90;;;11.88;;
12832;SDS011;6483;51.310;4.462;2022-08-16T08:16:59;10.73;;;9.52;;
12832;SDS011;6483;51.310;4.462;2022-08-16T08:19:35;13.50;;;9.40;;
12832;SDS011;6483;51.310;4.462;2022-08-16T08:22:01;10.30;;;8.65;;
12832;SDS011;6483;51.310;4.462;2022-08-16T08:24:27;9.27;;;8.35;;
12832;SDS011;6483;51.310;4.462;2022-08-16T08:26:59;12.15;;;8.77;;
12832;SDS011;6483;51.310;4.462;2022-08-16T08:29:25;10.50;;;8.48;;
12832;SDS011;6483;51.310;4.462;2022-08-16T08:31:54;8.73;;;7.15;;
12832;SDS011;6483;51.310;4.462;2022-08-16T08:34:20;9.15;;;7.40;;
12832;SDS011;6483;51.310;4.462;2022-08-16T08:36:46;11.00;;;7.72;;
12832;SDS011;6483;51.310;4.462;2022-08-16T08:39:19;9.93;;;7.43;;
12832;SDS011;6483;51.310;4.462;2022-08-16T08:41:45;9.73;;;7.75;;
12832;SDS011;6483;51.310;4.462;2022-08-16T08:44:14;8.43;;;7.63;;
12832;SDS011;6483;51.310;4.462;2022-08-16T08:46:40;16.85;;;8.27;;
12832;SDS011;6483;51.310;4.462;2022-08-16T08:49:06;10.23;;;9.13;;
12832;SDS011;6483;51.310;4.462;2022-08-16T08:51:33;16.88;;;9.20;;
12832;SDS011;6483;51.310;4.462;2022-08-16T08:54:00;10.30;;;8.18;;
12832;SDS011;6483;51.310;4.462;2022-08-16T08:56:28;9.77;;;7.50;;
12832;SDS011;6483;51.310;4.462;2022-08-16T08:58:57;8.80;;;7.70;;
12832;SDS011;6483;51.310;4.462;2022-08-16T09:01:24;10.90;;;7.43;;
12832;SDS011;6483;51.310;4.462;2022-08-16T09:03:52;12.02;;;7.07;;
12832;SDS011;6483;51.310;4.462;2022-08-16T09:06:22;7.90;;;5.85;;
12832;SDS011;6483;51.310;4.462;2022-08-16T09:08:48;8.15;;;6.57;;
12832;SDS011;6483;51.310;4.462;2022-08-16T09:11:14;10.38;;;5.88;;
12832;SDS011;6483;51.310;4.462;2022-08-16T09:13:40;8.60;;;6.13;;
12832;SDS011;6483;51.310;4.462;2022-08-16T09:16:08;6.93;;;5.80;;
12832;SDS011;6483;51.310;4.462;2022-08-16T09:18:38;10.30;;;5.25;;
12832;SDS011;6483;51.310;4.462;2022-08-16T09:21:04;8.30;;;6.25;;
12832;SDS011;6483;51.310;4.462;2022-08-16T09:23:34;8.23;;;5.78;;
12832;SDS011;6483;51.310;4.462;2022-08-16T09:26:01;10.35;;;7.57;;
12832;SDS011;6483;51.310;4.462;2022-08-16T09:28:31;14.75;;;6.22;;
12832;SDS011;6483;51.310;4.462;2022-08-16T09:31:01;9.05;;;5.72;;
12832;SDS011;6483;51.310;4.462;2022-08-16T09:33:27;8.00;;;7.03;;
12832;SDS011;6483;51.310;4.462;2022-08-16T09:35:53;8.45;;;6.40;;
12832;SDS011;6483;51.310;4.462;2022-08-16T09:38:23;9.77;;;6.47;;
12832;SDS011;6483;51.310;4.462;2022-08-16T09:40:49;7.85;;;6.85;;
12832;SDS011;6483;51.310;4.462;2022-08-16T09:43:16;9.38;;;7.00;;
12832;SDS011;6483;51.310;4.462;2022-08-16T09:45:49;10.38;;;6.13;;
12832;SDS011;6483;51.310;4.462;2022-08-16T09:48:15;9.63;;;6.35;;
12832;SDS011;6483;51.310;4.462;2022-08-16T09:50:42;8.50;;;6.55;;
12832;SDS011;6483;51.310;4.462;2022-08-16T09:53:21;11.10;;;6.32;;
12832;SDS011;6483;51.310;4.462;2022-08-16T09:55:51;9.52;;;6.45;;
12832;SDS011;6483;51.310;4.462;2022-08-16T09:58:18;6.75;;;5.43;;
12832;SDS011;6483;51.310;4.462;2022-08-16T10:00:44;6.82;;;5.32;;
12832;SDS011;6483;51.310;4.462;2022-08-16T10:03:10;6.68;;;5.90;;
12832;SDS011;6483;51.310;4.462;2022-08-16T10:05:37;5.43;;;4.93;;
12832;SDS011;6483;51.310;4.462;2022-08-16T10:08:03;8.50;;;5.68;;
12832;SDS011;6483;51.310;4.462;2022-08-16T10:10:31;7.65;;;5.45;;
12832;SDS011;6483;51.310;4.462;2022-08-16T10:12:57;8.85;;;5.07;;
12832;SDS011;6483;51.310;4.462;2022-08-16T10:15:40;8.18;;;5.45;;
12832;SDS011;6483;51.310;4.462;2022-08-16T10:18:07;9.65;;;5.13;;
12832;SDS011;6483;51.310;4.462;2022-08-16T10:20:35;6.47;;;4.63;;
12832;SDS011;6483;51.310;4.462;2022-08-16T10:23:06;6.93;;;4.75;;
12832;SDS011;6483;51.310;4.462;2022-08-16T10:25:33;6.93;;;4.60;;
12832;SDS011;6483;51.310;4.462;2022-08-16T10:27:59;8.95;;;4.18;;
12832;SDS011;6483;51.310;4.462;2022-08-16T10:30:25;5.15;;;3.75;;
12832;SDS011;6483;51.310;4.462;2022-08-16T10:32:54;6.30;;;4.15;;
12832;SDS011;6483;51.310;4.462;2022-08-16T10:35:20;9.40;;;4.82;;
12832;SDS011;6483;51.310;4.462;2022-08-16T10:37:49;6.88;;;4.97;;
12832;SDS011;6483;51.310;4.462;2022-08-16T10:40:16;7.53;;;4.20;;
12832;SDS011;6483;51.310;4.462;2022-08-16T10:42:45;7.28;;;4.15;;
12832;SDS011;6483;51.310;4.462;2022-08-16T10:45:13;6.65;;;3.67;;
12832;SDS011;6483;51.310;4.462;2022-08-16T10:47:39;6.00;;;4.15;;
12832;SDS011;6483;51.310;4.462;2022-08-16T10:50:06;5.38;;;3.92;;
12832;SDS011;6483;51.310;4.462;2022-08-16T10:52:32;7.95;;;4.07;;
12832;SDS011;6483;51.310;4.462;2022-08-16T10:54:58;4.68;;;3.55;;
12832;SDS011;6483;51.310;4.462;2022-08-16T10:57:26;5.13;;;3.28;;
12832;SDS011;6483;51.310;4.462;2022-08-16T10:59:53;6.95;;;2.65;;
12832;SDS011;6483;51.310;4.462;2022-08-16T11:02:20;6.38;;;3.10;;
12832;SDS011;6483;51.310;4.462;2022-08-16T11:04:46;7.45;;;3.60;;
12832;SDS011;6483;51.310;4.462;2022-08-16T11:07:12;3.25;;;2.95;;
12832;SDS011;6483;51.310;4.462;2022-08-16T11:09:44;4.70;;;3.10;;
12832;SDS011;6483;51.310;4.462;2022-08-16T11:12:10;4.30;;;2.95;;
12832;SDS011;6483;51.310;4.462;2022-08-16T11:14:36;5.05;;;2.90;;
12832;SDS011;6483;51.310;4.462;2022-08-16T11:17:03;3.15;;;2.80;;
12832;SDS011;6483;51.310;4.462;2022-08-16T11:19:30;3.15;;;2.80;;
12832;SDS011;6483;51.310;4.462;2022-08-16T11:21:57;5.95;;;2.80;;
12832;SDS011;6483;51.310;4.462;2022-08-16T11:24:27;4.78;;;2.60;;
12832;SDS011;6483;51.310;4.462;2022-08-16T11:26:53;4.68;;;2.70;;
12832;SDS011;6483;51.310;4.462;2022-08-16T11:29:19;4.97;;;3.38;;
12832;SDS011;6483;51.310;4.462;2022-08-16T11:31:46;5.05;;;3.28;;
12832;SDS011;6483;51.310;4.462;2022-08-16T11:34:14;3.20;;;2.90;;
12832;SDS011;6483;51.310;4.462;2022-08-16T11:36:41;4.90;;;2.85;;
12832;SDS011;6483;51.310;4.462;2022-08-16T11:39:07;7.57;;;3.00;;
12832;SDS011;6483;51.310;4.462;2022-08-16T11:41:33;4.15;;;2.72;;
12832;SDS011;6483;51.310;4.462;2022-08-16T11:44:02;8.43;;;2.75;;
12832;SDS011;6483;51.310;4.462;2022-08-16T11:46:29;5.72;;;2.75;;
12832;SDS011;6483;51.310;4.462;2022-08-16T11:48:58;4.35;;;2.95;;
12832;SDS011;6483;51.310;4.462;2022-08-16T11:51:27;4.40;;;2.42;;
12832;SDS011;6483;51.310;4.462;2022-08-16T11:53:52;7.18;;;2.80;;
12832;SDS011;6483;51.310;4.462;2022-08-16T11:56:19;4.13;;;3.20;;
12832;SDS011;6483;51.310;4.462;2022-08-16T11:58:48;5.72;;;2.72;;
12832;SDS011;6483;51.310;4.462;2022-08-16T12:01:17;4.30;;;2.90;;
12832;SDS011;6483;51.310;4.462;2022-08-16T12:03:43;3.20;;;2.65;;
12832;SDS011;6483;51.310;4.462;2022-08-16T12:08:56;2.55;;;2.35;;
12832;SDS011;6483;51.310;4.462;2022-08-16T12:11:24;7.35;;;3.45;;
12832;SDS011;6483;51.310;4.462;2022-08-16T12:13:51;5.72;;;2.70;;
12832;SDS011;6483;51.310;4.462;2022-08-16T12:16:18;6.20;;;2.15;;
12832;SDS011;6483;51.310;4.462;2022-08-16T12:18:45;11.50;;;5.28;;
12832;SDS011;6483;51.310;4.462;2022-08-16T12:21:17;2.55;;;2.25;;
12832;SDS011;6483;51.310;4.462;2022-08-16T12:23:46;4.68;;;2.47;;
12832;SDS011;6483;51.310;4.462;2022-08-16T12:26:15;4.13;;;2.45;;
12832;SDS011;6483;51.310;4.462;2022-08-16T12:28:44;6.50;;;3.50;;
12832;SDS011;6483;51.310;4.462;2022-08-16T12:31:10;3.28;;;2.17;;
12832;SDS011;6483;51.310;4.462;2022-08-16T12:33:36;3.90;;;2.22;;
12832;SDS011;6483;51.310;4.462;2022-08-16T12:36:07;3.65;;;2.22;;
12832;SDS011;6483;51.310;4.462;2022-08-16T12:38:36;7.00;;;2.25;;
12832;SDS011;6483;51.310;4.462;2022-08-16T12:41:02;5.13;;;2.25;;
12832;SDS011;6483;51.310;4.462;2022-08-16T12:43:31;5.93;;;2.15;;
12832;SDS011;6483;51.310;4.462;2022-08-16T12:45:57;5.78;;;2.30;;
12832;SDS011;6483;51.310;4.462;2022-08-16T12:48:26;4.72;;;2.40;;
12832;SDS011;6483;51.310;4.462;2022-08-16T12:51:11;4.82;;;2.40;;
12832;SDS011;6483;51.310;4.462;2022-08-16T12:53:38;4.60;;;2.88;;
12832;SDS011;6483;51.310;4.462;2022-08-16T12:56:04;7.43;;;2.58;;
12832;SDS011;6483;51.310;4.462;2022-08-16T12:58:32;4.70;;;2.78;;
12832;SDS011;6483;51.310;4.462;2022-08-16T13:00:59;3.67;;;2.88;;
12832;SDS011;6483;51.310;4.462;2022-08-16T13:03:26;5.88;;;2.50;;
12832;SDS011;6483;51.310;4.462;2022-08-16T13:05:53;6.05;;;2.80;;
12832;SDS011;6483;51.310;4.462;2022-08-16T13:08:19;4.03;;;2.72;;
12832;SDS011;6483;51.310;4.462;2022-08-16T13:10:47;4.30;;;2.75;;
12832;SDS011;6483;51.310;4.462;2022-08-16T13:13:15;5.15;;;2.30;;
12832;SDS011;6483;51.310;4.462;2022-08-16T13:15:55;5.75;;;2.80;;
12832;SDS011;6483;51.310;4.462;2022-08-16T13:18:25;3.47;;;2.60;;
12832;SDS011;6483;51.310;4.462;2022-08-16T13:20:55;3.38;;;2.78;;
12832;SDS011;6483;51.310;4.462;2022-08-16T13:23:21;3.65;;;2.65;;
12832;SDS011;6483;51.310;4.462;2022-08-16T13:25:48;2.63;;;2.42;;
12832;SDS011;6483;51.310;4.462;2022-08-16T13:28:14;5.03;;;2.40;;
12832;SDS011;6483;51.310;4.462;2022-08-16T13:30:42;4.72;;;2.78;;
12832;SDS011;6483;51.310;4.462;2022-08-16T13:33:13;3.75;;;2.78;;
12832;SDS011;6483;51.310;4.462;2022-08-16T13:35:41;6.88;;;2.30;;
12832;SDS011;6483;51.310;4.462;2022-08-16T13:38:07;2.85;;;2.42;;
12832;SDS011;6483;51.310;4.462;2022-08-16T13:40:34;3.53;;;2.50;;
12832;SDS011;6483;51.310;4.462;2022-08-16T13:43:06;4.70;;;2.60;;
12832;SDS011;6483;51.310;4.462;2022-08-16T13:45:32;2.88;;;2.58;;
12832;SDS011;6483;51.310;4.462;2022-08-16T13:48:01;3.88;;;2.30;;
12832;SDS011;6483;51.310;4.462;2022-08-16T13:50:29;5.57;;;2.42;;
12832;SDS011;6483;51.310;4.462;2022-08-16T13:52:56;3.22;;;2.50;;
12832;SDS011;6483;51.310;4.462;2022-08-16T13:55:22;4.28;;;1.90;;
12832;SDS011;6483;51.310;4.462;2022-08-16T13:57:49;3.50;;;2.28;;
12832;SDS011;6483;51.310;4.462;2022-08-16T14:00:16;6.63;;;2.70;;
12832;SDS011;6483;51.310;4.462;2022-08-16T14:02:42;6.10;;;2.70;;
12832;SDS011;6483;51.310;4.462;2022-08-16T14:05:09;4.43;;;2.08;;
12832;SDS011;6483;51.310;4.462;2022-08-16T14:07:35;3.17;;;2.00;;
12832;SDS011;6483;51.310;4.462;2022-08-16T14:10:05;2.65;;;2.45;;
12832;SDS011;6483;51.310;4.462;2022-08-16T14:12:32;4.82;;;2.42;;
12832;SDS011;6483;51.310;4.462;2022-08-16T14:14:59;4.90;;;2.60;;
12832;SDS011;6483;51.310;4.462;2022-08-16T14:17:26;2.90;;;2.30;;
12832;SDS011;6483;51.310;4.462;2022-08-16T14:19:52;5.63;;;3.05;;
12832;SDS011;6483;51.310;4.462;2022-08-16T14:22:20;12.40;;;3.58;;
12832;SDS011;6483;51.310;4.462;2022-08-16T14:24:50;7.22;;;2.60;;
12832;SDS011;6483;51.310;4.462;2022-08-16T14:27:21;2.65;;;2.45;;
12832;SDS011;6483;51.310;4.462;2022-08-16T14:29:47;3.72;;;2.85;;
12832;SDS011;6483;51.310;4.462;2022-08-16T14:32:21;5.25;;;2.85;;
12832;SDS011;6483;51.310;4.462;2022-08-16T14:34:53;5.95;;;2.97;;
12832;SDS011;6483;51.310;4.462;2022-08-16T14:37:22;5.47;;;2.80;;
12832;SDS011;6483;51.310;4.462;2022-08-16T14:39:51;3.83;;;2.42;;
12832;SDS011;6483;51.310;4.462;2022-08-16T14:42:19;6.03;;;2.53;;
12832;SDS011;6483;51.310;4.462;2022-08-16T14:44:46;3.05;;;2.30;;
12832;SDS011;6483;51.310;4.462;2022-08-16T14:47:12;5.35;;;2.90;;
12832;SDS011;6483;51.310;4.462;2022-08-16T14:49:39;3.08;;;2.30;;
12832;SDS011;6483;51.310;4.462;2022-08-16T14:52:06;2.85;;;2.38;;
12832;SDS011;6483;51.310;4.462;2022-08-16T14:54:32;5.43;;;2.70;;
12832;SDS011;6483;51.310;4.462;2022-08-16T14:56:59;2.92;;;2.30;;